sensor_id;sensor_type;location;lat;lon;timestamp;pressure;altitude;pressure_sealevel;temperature;humidity
22580;BME280;11456;47.030;15.396;2024-03-08T00:00:34;97818.91;;;3.71;100.00
22580;BME280;11456;47.030;15.396;2024-03-08T00:03:02;97821.00;;;3.91;100.00
22580;BME280;11456;47.030;15.396;2024-03-08T00:05:29;97817.38;;;3.80;100.00
22580;BME280;11456;47.030;15.396;2024-03-08T00:07:56;97816.75;;;3.76;100.00
22580;BME280;11456;47.030;15.396;2024-03-08T00:10:23;97817.72;;;3.62;100.00
22580;BME280;11456;47.030;15.396;2024-03-08T00:12:53;97819.50;;;3.62;100.00
22580;BME280;11456;47.030;15.396;2024-03-08T00:15:20;97819.94;;;3.56;100.00
22580;BME280;11456;47.030;15.396;2024-03-08T00:17:49;97826.09;;;3.31;100.00
22580;BME280;11456;47.030;15.396;2024-03-08T00:20:17;97823.31;;;3.33;100.00
22580;BME280;11456;47.030;15.396;2024-03-08T00:22:46;97824.00;;;3.09;100.00
22580;BME280;11456;47.030;15.396;2024-03-08T00:25:13;97821.13;;;3.12;100.00
22580;BME280;11456;47.030;15.396;2024-03-08T00:27:40;97820.41;;;3.23;100.00
22580;BME280;11456;47.030;15.396;2024-03-08T00:30:08;97816.25;;;3.19;100.00
22580;BME280;11456;47.030;15.396;2024-03-08T00:32:35;97813.47;;;3.20;100.00
22580;BME280;11456;47.030;15.396;2024-03-08T00:35:03;97812.94;;;3.15;100.00
22580;BME280;11456;47.030;15.396;2024-03-08T00:37:29;97810.75;;;3.35;100.00
22580;BME280;11456;47.030;15.396;2024-03-08T00:39:56;97810.31;;;3.28;100.00
22580;BME280;11456;47.030;15.396;2024-03-08T00:42:23;97813.22;;;2.98;100.00
22580;BME280;11456;47.030;15.396;2024-03-08T00:44:51;97809.38;;;3.02;100.00
22580;BME280;11456;47.030;15.396;2024-03-08T00:47:18;97811.84;;;3.05;100.00
22580;BME280;11456;47.030;15.396;2024-03-08T00:49:45;97806.56;;;2.78;100.00
22580;BME280;11456;47.030;15.396;2024-03-08T00:52:13;97807.69;;;3.01;100.00
22580;BME280;11456;47.030;15.396;2024-03-08T00:54:40;97803.00;;;2.92;100.00
22580;BME280;11456;47.030;15.396;2024-03-08T00:57:07;97802.81;;;3.20;100.00
22580;BME280;11456;47.030;15.396;2024-03-08T00:59:34;97802.00;;;3.20;100.00
22580;BME280;11456;47.030;15.396;2024-03-08T01:02:01;97795.94;;;3.18;100.00
22580;BME280;11456;47.030;15.396;2024-03-08T01:04:28;97789.88;;;3.41;100.00
22580;BME280;11456;47.030;15.396;2024-03-08T01:06:56;97795.84;;;3.19;100.00
22580;BME280;11456;47.030;15.396;2024-03-08T01:09:26;97804.47;;;2.96;100.00
22580;BME280;11456;47.030;15.396;2024-03-08T01:11:54;97798.47;;;2.80;100.00
22580;BME280;11456;47.030;15.396;2024-03-08T01:14:22;97808.00;;;2.70;100.00
22580;BME280;11456;47.030;15.396;2024-03-08T01:16:50;97805.47;;;2.68;100.00
22580;BME280;11456;47.030;15.396;2024-03-08T01:19:17;97791.44;;;2.79;100.00
22580;BME280;11456;47.030;15.396;2024-03-08T01:21:44;97802.03;;;2.66;100.00
22580;BME280;11456;47.030;15.396;2024-03-08T01:24:10;97784.81;;;2.72;100.00
22580;BME280;11456;47.030;15.396;2024-03-08T01:26:37;97787.97;;;2.91;100.00
22580;BME280;11456;47.030;15.396;2024-03-08T01:29:05;97785.91;;;3.21;100.00
22580;BME280;11456;47.030;15.396;2024-03-08T01:31:32;97792.81;;;3.11;100.00
22580;BME280;11456;47.030;15.396;2024-03-08T01:33:59;97788.78;;;3.18;100.00
22580;BME280;11456;47.030;15.396;2024-03-08T01:36:26;97789.44;;;3.22;100.00
22580;BME280;11456;47.030;15.396;2024-03-08T01:38:52;97778.75;;;3.09;100.00
22580;BME280;11456;47.030;15.396;2024-03-08T01:41:19;97785.41;;;3.42;100.00
22580;BME280;11456;47.030;15.396;2024-03-08T01:43:46;97782.63;;;3.31;100.00
22580;BME280;11456;47.030;15.396;2024-03-08T01:46:15;97779.97;;;3.31;100.00
22580;BME280;11456;47.030;15.396;2024-03-08T01:48:44;97781.28;;;2.98;100.00
22580;BME280;11456;47.030;15.396;2024-03-08T01:51:12;97774.19;;;3.11;100.00
22580;BME280;11456;47.030;15.396;2024-03-08T01:53:43;97779.22;;;3.29;100.00
22580;BME280;11456;47.030;15.396;2024-03-08T01:56:13;97784.34;;;3.32;100.00
22580;BME280;11456;47.030;15.396;2024-03-08T01:58:43;97773.78;;;3.30;100.00
22580;BME280;11456;47.030;15.396;2024-03-08T02:01:11;97778.16;;;3.18;100.00
22580;BME280;11456;47.030;15.396;2024-03-08T02:03:40;97772.56;;;2.96;100.00
22580;BME280;11456;47.030;15.396;2024-03-08T02:06:06;97774.25;;;2.97;100.00
22580;BME280;11456;47.030;15.396;2024-03-08T02:08:37;97770.00;;;3.07;100.00
22580;BME280;11456;47.030;15.396;2024-03-08T02:11:04;97772.75;;;3.33;100.00
22580;BME280;11456;47.030;15.396;2024-03-08T02:13:31;97769.22;;;3.19;100.00
22580;BME280;11456;47.030;15.396;2024-03-08T02:15:59;97769.84;;;3.36;100.00
22580;BME280;11456;47.030;15.396;2024-03-08T02:18:29;97770.84;;;2.95;100.00
22580;BME280;11456;47.030;15.396;2024-03-08T02:20:58;97769.31;;;2.78;100.00
22580;BME280;11456;47.030;15.396;2024-03-08T02:23:26;97768.91;;;2.85;100.00
22580;BME280;11456;47.030;15.396;2024-03-08T02:25:54;97775.28;;;2.82;100.00
22580;BME280;11456;47.030;15.396;2024-03-08T02:28:23;97780.66;;;2.68;100.00
22580;BME280;11456;47.030;15.396;2024-03-08T02:30:52;97782.22;;;2.58;100.00
22580;BME280;11456;47.030;15.396;2024-03-08T02:33:23;97774.19;;;2.72;100.00
22580;BME280;11456;47.030;15.396;2024-03-08T02:35:51;97777.66;;;2.60;100.00
22580;BME280;11456;47.030;15.396;2024-03-08T02:38:19;97787.84;;;2.53;100.00
22580;BME280;11456;47.030;15.396;2024-03-08T02:40:49;97787.63;;;2.56;100.00
22580;BME280;11456;47.030;15.396;2024-03-08T02:43:17;97780.41;;;2.85;100.00
22580;BME280;11456;47.030;15.396;2024-03-08T02:45:46;97771.78;;;2.81;100.00
22580;BME280;11456;47.030;15.396;2024-03-08T02:48:14;97774.25;;;2.97;100.00
22580;BME280;11456;47.030;15.396;2024-03-08T02:50:42;97773.44;;;3.09;100.00
22580;BME280;11456;47.030;15.396;2024-03-08T02:53:12;97779.53;;;3.11;100.00
22580;BME280;11456;47.030;15.396;2024-03-08T02:55:40;97772.50;;;3.10;100.00
22580;BME280;11456;47.030;15.396;2024-03-08T02:58:08;97771.31;;;3.14;100.00
22580;BME280;11456;47.030;15.396;2024-03-08T03:00:37;97776.91;;;3.37;100.00
22580;BME280;11456;47.030;15.396;2024-03-08T03:03:05;97769.44;;;3.67;100.00
22580;BME280;11456;47.030;15.396;2024-03-08T03:05:33;97762.63;;;3.63;100.00
22580;BME280;11456;47.030;15.396;2024-03-08T03:08:00;97761.13;;;3.59;100.00
22580;BME280;11456;47.030;15.396;2024-03-08T03:10:27;97754.22;;;3.44;100.00
22580;BME280;11456;47.030;15.396;2024-03-08T03:12:54;97758.78;;;3.54;100.00
22580;BME280;11456;47.030;15.396;2024-03-08T03:15:21;97759.19;;;3.23;100.00
22580;BME280;11456;47.030;15.396;2024-03-08T03:17:50;97762.63;;;3.38;100.00
22580;BME280;11456;47.030;15.396;2024-03-08T03:20:20;97754.84;;;3.60;100.00
22580;BME280;11456;47.030;15.396;2024-03-08T03:22:53;97755.50;;;3.51;100.00
22580;BME280;11456;47.030;15.396;2024-03-08T03:25:21;97763.13;;;3.05;100.00
22580;BME280;11456;47.030;15.396;2024-03-08T03:27:55;97759.63;;;3.30;100.00
22580;BME280;11456;47.030;15.396;2024-03-08T03:30:24;97762.19;;;3.18;100.00
22580;BME280;11456;47.030;15.396;2024-03-08T03:32:53;97763.31;;;3.14;100.00
22580;BME280;11456;47.030;15.396;2024-03-08T03:35:22;97761.84;;;2.71;100.00
22580;BME280;11456;47.030;15.396;2024-03-08T03:37:49;97768.59;;;2.50;100.00
22580;BME280;11456;47.030;15.396;2024-03-08T03:40:29;97765.13;;;2.62;100.00
22580;BME280;11456;47.030;15.396;2024-03-08T03:42:55;97764.25;;;2.34;100.00
22580;BME280;11456;47.030;15.396;2024-03-08T03:45:23;97766.25;;;2.58;100.00
22580;BME280;11456;47.030;15.396;2024-03-08T03:47:50;97765.34;;;2.45;100.00
22580;BME280;11456;47.030;15.396;2024-03-08T03:50:18;97759.13;;;2.85;100.00
22580;BME280;11456;47.030;15.396;2024-03-08T03:52:51;97763.59;;;2.58;100.00
22580;BME280;11456;47.030;15.396;2024-03-08T03:55:18;97761.41;;;2.64;100.00
22580;BME280;11456;47.030;15.396;2024-03-08T03:57:47;97759.13;;;2.58;100.00
22580;BME280;11456;47.030;15.396;2024-03-08T04:00:14;97764.50;;;2.44;100.00
22580;BME280;11456;47.030;15.396;2024-03-08T04:02:41;97760.75;;;2.61;100.00
22580;BME280;11456;47.030;15.396;2024-03-08T04:05:09;97768.38;;;2.53;100.00
22580;BME280;11456;47.030;15.396;2024-03-08T04:07:36;97771.44;;;2.47;100.00
22580;BME280;11456;47.030;15.396;2024-03-08T04:10:05;97767.84;;;2.33;100.00
22580;BME280;11456;47.030;15.396;2024-03-08T04:12:35;97766.41;;;2.42;100.00
22580;BME280;11456;47.030;15.396;2024-03-08T04:15:02;97769.34;;;2.37;100.00
22580;BME280;11456;47.030;15.396;2024-03-08T04:17:29;97765.19;;;2.33;100.00
22580;BME280;11456;47.030;15.396;2024-03-08T04:19:56;97769.47;;;2.36;100.00
22580;BME280;11456;47.030;15.396;2024-03-08T04:22:23;97767.78;;;2.35;100.00
22580;BME280;11456;47.030;15.396;2024-03-08T04:24:50;97770.34;;;2.22;100.00
22580;BME280;11456;47.030;15.396;2024-03-08T04:27:17;97780.63;;;2.00;100.00
22580;BME280;11456;47.030;15.396;2024-03-08T04:29:44;97771.31;;;2.21;100.00
22580;BME280;11456;47.030;15.396;2024-03-08T04:32:10;97773.81;;;2.10;100.00
22580;BME280;11456;47.030;15.396;2024-03-08T04:34:40;97776.16;;;2.15;100.00
22580;BME280;11456;47.030;15.396;2024-03-08T04:37:09;97780.19;;;2.34;100.00
22580;BME280;11456;47.030;15.396;2024-03-08T04:39:39;97776.47;;;2.37;100.00
22580;BME280;11456;47.030;15.396;2024-03-08T04:42:07;97778.09;;;2.39;100.00
22580;BME280;11456;47.030;15.396;2024-03-08T04:44:37;97776.59;;;2.35;100.00
22580;BME280;11456;47.030;15.396;2024-03-08T04:47:06;97768.38;;;2.53;100.00
22580;BME280;11456;47.030;15.396;2024-03-08T04:49:33;97781.97;;;2.48;100.00
22580;BME280;11456;47.030;15.396;2024-03-08T04:52:04;97772.06;;;2.77;100.00
22580;BME280;11456;47.030;15.396;2024-03-08T04:54:31;97775.84;;;2.60;100.00
22580;BME280;11456;47.030;15.396;2024-03-08T04:56:58;97766.41;;;2.69;100.00
22580;BME280;11456;47.030;15.396;2024-03-08T04:59:27;97766.25;;;2.58;100.00
22580;BME280;11456;47.030;15.396;2024-03-08T05:01:54;97766.41;;;2.69;100.00
22580;BME280;11456;47.030;15.396;2024-03-08T05:04:21;97766.16;;;2.86;100.00
22580;BME280;11456;47.030;15.396;2024-03-08T05:06:48;97764.84;;;2.79;100.00
22580;BME280;11456;47.030;15.396;2024-03-08T05:09:15;97769.41;;;2.77;100.00
22580;BME280;11456;47.030;15.396;2024-03-08T05:11:43;97766.06;;;2.61;100.00
22580;BME280;11456;47.030;15.396;2024-03-08T05:14:11;97770.94;;;2.54;100.00
22580;BME280;11456;47.030;15.396;2024-03-08T05:16:43;97769.56;;;2.34;100.00
22580;BME280;11456;47.030;15.396;2024-03-08T05:19:10;97778.47;;;2.48;100.00
22580;BME280;11456;47.030;15.396;2024-03-08T05:21:36;97775.28;;;2.28;100.00
22580;BME280;11456;47.030;15.396;2024-03-08T05:24:03;97774.63;;;2.52;100.00
22580;BME280;11456;47.030;15.396;2024-03-08T05:26:31;97781.63;;;2.67;100.00
22580;BME280;11456;47.030;15.396;2024-03-08T05:28:59;97782.97;;;2.60;100.00
22580;BME280;11456;47.030;15.396;2024-03-08T05:31:26;97781.56;;;2.54;100.00
22580;BME280;11456;47.030;15.396;2024-03-08T05:33:54;97780.81;;;2.52;100.00
22580;BME280;11456;47.030;15.396;2024-03-08T05:36:22;97782.84;;;2.34;100.00
22580;BME280;11456;47.030;15.396;2024-03-08T05:38:48;97786.53;;;2.46;100.00
22580;BME280;11456;47.030;15.396;2024-03-08T05:41:16;97780.34;;;2.46;100.00
22580;BME280;11456;47.030;15.396;2024-03-08T05:43:44;97780.50;;;2.57;100.00
22580;BME280;11456;47.030;15.396;2024-03-08T05:46:11;97786.28;;;2.63;100.00
22580;BME280;11456;47.030;15.396;2024-03-08T05:48:38;97790.09;;;2.59;100.00
22580;BME280;11456;47.030;15.396;2024-03-08T05:51:05;97783.41;;;2.93;100.00
22580;BME280;11456;47.030;15.396;2024-03-08T05:53:32;97794.28;;;2.76;100.00
22580;BME280;11456;47.030;15.396;2024-03-08T05:55:59;97780.88;;;3.04;100.00
22580;BME280;11456;47.030;15.396;2024-03-08T05:58:25;97777.72;;;3.25;100.00
22580;BME280;11456;47.030;15.396;2024-03-08T06:00:52;97773.78;;;3.17;100.00
22580;BME280;11456;47.030;15.396;2024-03-08T06:03:19;97779.88;;;3.19;100.00
22580;BME280;11456;47.030;15.396;2024-03-08T06:05:48;97780.06;;;3.16;100.00
22580;BME280;11456;47.030;15.396;2024-03-08T06:08:16;97774.63;;;3.05;100.00
22580;BME280;11456;47.030;15.396;2024-03-08T06:10:43;97781.53;;;3.20;100.00
22580;BME280;11456;47.030;15.396;2024-03-08T06:13:10;97781.78;;;3.43;100.00
22580;BME280;11456;47.030;15.396;2024-03-08T06:15:38;97779.22;;;3.41;100.00
22580;BME280;11456;47.030;15.396;2024-03-08T06:18:06;97782.22;;;3.87;100.00
22580;BME280;11456;47.030;15.396;2024-03-08T06:20:33;97783.59;;;4.06;100.00
22580;BME280;11456;47.030;15.396;2024-03-08T06:23:00;97789.25;;;4.01;100.00
22580;BME280;11456;47.030;15.396;2024-03-08T06:25:28;97786.00;;;4.34;100.00
22580;BME280;11456;47.030;15.396;2024-03-08T06:27:54;97793.16;;;4.57;100.00
22580;BME280;11456;47.030;15.396;2024-03-08T06:30:21;97788.06;;;4.05;100.00
22580;BME280;11456;47.030;15.396;2024-03-08T06:32:48;97790.06;;;4.27;100.00
22580;BME280;11456;47.030;15.396;2024-03-08T06:35:15;97784.75;;;4.14;100.00
22580;BME280;11456;47.030;15.396;2024-03-08T06:37:43;97787.44;;;4.98;100.00
22580;BME280;11456;47.030;15.396;2024-03-08T06:40:11;97788.31;;;4.99;100.00
22580;BME280;11456;47.030;15.396;2024-03-08T06:42:41;97787.91;;;4.92;100.00
22580;BME280;11456;47.030;15.396;2024-03-08T06:45:08;97790.41;;;5.52;100.00
22580;BME280;11456;47.030;15.396;2024-03-08T06:47:36;97795.88;;;5.16;100.00
22580;BME280;11456;47.030;15.396;2024-03-08T06:50:04;97797.91;;;5.36;100.00
22580;BME280;11456;47.030;15.396;2024-03-08T06:52:31;97800.97;;;5.19;100.00
22580;BME280;11456;47.030;15.396;2024-03-08T06:54:57;97791.31;;;5.29;100.00
22580;BME280;11456;47.030;15.396;2024-03-08T06:57:24;97795.38;;;5.57;100.00
22580;BME280;11456;47.030;15.396;2024-03-08T06:59:51;97797.44;;;6.11;100.00
22580;BME280;11456;47.030;15.396;2024-03-08T07:02:19;97799.88;;;6.02;100.00
22580;BME280;11456;47.030;15.396;2024-03-08T07:04:45;97797.09;;;6.26;100.00
22580;BME280;11456;47.030;15.396;2024-03-08T07:07:12;97800.22;;;6.65;100.00
22580;BME280;11456;47.030;15.396;2024-03-08T07:09:39;97801.84;;;6.88;100.00
22580;BME280;11456;47.030;15.396;2024-03-08T07:12:06;97796.22;;;6.37;100.00
22580;BME280;11456;47.030;15.396;2024-03-08T07:14:33;97801.47;;;5.94;100.00
22580;BME280;11456;47.030;15.396;2024-03-08T07:17:00;97802.16;;;6.63;100.00
22580;BME280;11456;47.030;15.396;2024-03-08T07:19:30;97800.97;;;6.11;100.00
22580;BME280;11456;47.030;15.396;2024-03-08T07:21:57;97800.97;;;6.11;100.00
22580;BME280;11456;47.030;15.396;2024-03-08T07:24:24;97800.94;;;6.56;100.00
22580;BME280;11456;47.030;15.396;2024-03-08T07:27:06;97800.97;;;6.11;100.00
22580;BME280;11456;47.030;15.396;2024-03-08T07:29:33;97802.81;;;5.99;100.00
22580;BME280;11456;47.030;15.396;2024-03-08T07:32:03;97801.34;;;6.40;100.00
22580;BME280;11456;47.030;15.396;2024-03-08T07:34:58;97799.06;;;6.90;100.00
22580;BME280;11456;47.030;15.396;2024-03-08T07:37:25;97806.31;;;6.11;100.00
22580;BME280;11456;47.030;15.396;2024-03-08T07:39:52;97808.91;;;5.78;100.00
22580;BME280;11456;47.030;15.396;2024-03-08T07:42:18;97813.84;;;4.66;100.00
22580;BME280;11456;47.030;15.396;2024-03-08T07:44:45;97818.94;;;4.69;100.00
22580;BME280;11456;47.030;15.396;2024-03-08T07:47:15;97816.69;;;4.39;100.00
22580;BME280;11456;47.030;15.396;2024-03-08T07:49:43;97808.63;;;4.16;100.00
22580;BME280;11456;47.030;15.396;2024-03-08T07:52:10;97815.03;;;4.13;100.00
22580;BME280;11456;47.030;15.396;2024-03-08T07:54:42;97815.03;;;4.00;100.00
22580;BME280;11456;47.030;15.396;2024-03-08T07:57:08;97815.91;;;4.01;100.00
22580;BME280;11456;47.030;15.396;2024-03-08T07:59:36;97817.53;;;4.40;100.00
22580;BME280;11456;47.030;15.396;2024-03-08T08:02:03;97814.66;;;4.30;100.00
22580;BME280;11456;47.030;15.396;2024-03-08T08:04:30;97819.72;;;4.10;100.00
22580;BME280;11456;47.030;15.396;2024-03-08T08:06:57;97818.91;;;3.84;100.00
22580;BME280;11456;47.030;15.396;2024-03-08T08:09:24;97824.63;;;3.65;100.00
22580;BME280;11456;47.030;15.396;2024-03-08T08:12:01;97829.09;;;3.52;100.00
22580;BME280;11456;47.030;15.396;2024-03-08T08:14:30;97823.38;;;3.96;100.00
22580;BME280;11456;47.030;15.396;2024-03-08T08:16:57;97825.47;;;3.53;100.00
22580;BME280;11456;47.030;15.396;2024-03-08T08:19:26;97827.63;;;3.73;100.00
22580;BME280;11456;47.030;15.396;2024-03-08T08:21:53;97824.38;;;4.68;100.00
22580;BME280;11456;47.030;15.396;2024-03-08T08:24:20;97828.34;;;4.62;100.00
22580;BME280;11456;47.030;15.396;2024-03-08T08:26:48;97828.91;;;4.91;100.00
22580;BME280;11456;47.030;15.396;2024-03-08T08:29:15;97826.63;;;4.61;100.00
22580;BME280;11456;47.030;15.396;2024-03-08T08:31:42;97825.03;;;4.22;100.00
22580;BME280;11456;47.030;15.396;2024-03-08T08:34:09;97819.38;;;4.63;100.00
22580;BME280;11456;47.030;15.396;2024-03-08T08:36:38;97833.22;;;4.32;100.00
22580;BME280;11456;47.030;15.396;2024-03-08T08:39:05;97822.56;;;4.68;100.00
22580;BME280;11456;47.030;15.396;2024-03-08T08:41:39;97815.38;;;4.45;100.00
22580;BME280;11456;47.030;15.396;2024-03-08T08:44:07;97812.25;;;4.27;100.00
22580;BME280;11456;47.030;15.396;2024-03-08T08:46:42;97820.13;;;4.29;100.00
22580;BME280;11456;47.030;15.396;2024-03-08T08:49:09;97823.53;;;4.31;100.00
22580;BME280;11456;47.030;15.396;2024-03-08T08:51:41;97819.53;;;4.49;100.00
22580;BME280;11456;47.030;15.396;2024-03-08T08:54:07;97818.28;;;4.78;100.00
22580;BME280;11456;47.030;15.396;2024-03-08T08:56:38;97814.09;;;4.51;100.00
22580;BME280;11456;47.030;15.396;2024-03-08T08:59:05;97815.75;;;5.82;100.00
22580;BME280;11456;47.030;15.396;2024-03-08T09:01:31;97815.78;;;6.04;100.00
22580;BME280;11456;47.030;15.396;2024-03-08T09:03:59;97810.31;;;5.48;100.00
22580;BME280;11456;47.030;15.396;2024-03-08T09:06:26;97815.00;;;5.80;100.00
22580;BME280;11456;47.030;15.396;2024-03-08T09:08:53;97811.91;;;6.08;100.00
22580;BME280;11456;47.030;15.396;2024-03-08T09:11:19;97805.22;;;6.47;100.00
22580;BME280;11456;47.030;15.396;2024-03-08T09:13:46;97803.38;;;6.48;100.00
22580;BME280;11456;47.030;15.396;2024-03-08T09:16:13;97810.53;;;5.80;100.00
22580;BME280;11456;47.030;15.396;2024-03-08T09:18:40;97808.75;;;6.25;100.00
22580;BME280;11456;47.030;15.396;2024-03-08T09:21:08;97804.63;;;6.32;100.00
22580;BME280;11456;47.030;15.396;2024-03-08T09:23:37;97803.25;;;6.60;100.00
22580;BME280;11456;47.030;15.396;2024-03-08T09:26:04;97808.25;;;6.54;100.00
22580;BME280;11456;47.030;15.396;2024-03-08T09:28:38;97800.97;;;6.11;100.00
22580;BME280;11456;47.030;15.396;2024-03-08T09:31:05;97799.09;;;6.67;100.00
22580;BME280;11456;47.030;15.396;2024-03-08T09:33:32;97801.81;;;7.10;100.00
22580;BME280;11456;47.030;15.396;2024-03-08T09:36:01;97794.06;;;6.96;100.00
22580;BME280;11456;47.030;15.396;2024-03-08T09:38:30;97794.94;;;7.17;100.00
22580;BME280;11456;47.030;15.396;2024-03-08T09:40:57;97794.09;;;7.49;100.00
22580;BME280;11456;47.030;15.396;2024-03-08T09:43:24;97788.00;;;7.47;100.00
22580;BME280;11456;47.030;15.396;2024-03-08T09:45:51;97791.50;;;7.27;100.00
22580;BME280;11456;47.030;15.396;2024-03-08T09:48:18;97787.06;;;7.78;100.00
22580;BME280;11456;47.030;15.396;2024-03-08T09:50:46;97783.75;;;7.12;100.00
22580;BME280;11456;47.030;15.396;2024-03-08T09:53:13;97781.94;;;6.70;100.00
22580;BME280;11456;47.030;15.396;2024-03-08T09:55:40;97784.94;;;7.19;100.00
22580;BME280;11456;47.030;15.396;2024-03-08T09:58:12;97788.56;;;7.30;100.00
22580;BME280;11456;47.030;15.396;2024-03-08T10:00:54;97784.53;;;7.35;100.00
22580;BME280;11456;47.030;15.396;2024-03-08T10:03:24;97792.66;;;6.70;100.00
22580;BME280;11456;47.030;15.396;2024-03-08T10:05:52;97792.75;;;7.11;100.00
22580;BME280;11456;47.030;15.396;2024-03-08T10:08:23;97798.84;;;7.13;100.00
22580;BME280;11456;47.030;15.396;2024-03-08T10:10:51;97796.09;;;7.36;100.00
22580;BME280;11456;47.030;15.396;2024-03-08T10:13:18;97790.22;;;7.42;99.17
22580;BME280;11456;47.030;15.396;2024-03-08T10:15:46;97789.56;;;7.91;99.23
22580;BME280;11456;47.030;15.396;2024-03-08T10:18:13;97785.88;;;8.13;89.42
22580;BME280;11456;47.030;15.396;2024-03-08T10:20:39;97790.22;;;8.14;91.82
22580;BME280;11456;47.030;15.396;2024-03-08T10:23:06;97785.34;;;9.28;82.72
22580;BME280;11456;47.030;15.396;2024-03-08T10:25:37;97785.72;;;9.61;78.79
22580;BME280;11456;47.030;15.396;2024-03-08T10:28:05;97789.16;;;9.44;69.28
22580;BME280;11456;47.030;15.396;2024-03-08T10:30:32;97772.47;;;10.16;62.73
22580;BME280;11456;47.030;15.396;2024-03-08T10:32:59;97790.59;;;10.14;61.20
22580;BME280;11456;47.030;15.396;2024-03-08T10:35:26;97770.66;;;10.44;65.55
22580;BME280;11456;47.030;15.396;2024-03-08T10:37:56;97784.06;;;10.26;60.05
22580;BME280;11456;47.030;15.396;2024-03-08T10:40:27;97779.28;;;10.20;60.51
22580;BME280;11456;47.030;15.396;2024-03-08T10:42:57;97776.91;;;10.44;59.61
22580;BME280;11456;47.030;15.396;2024-03-08T10:48:09;97768.91;;;10.62;56.74
22580;BME280;11456;47.030;15.396;2024-03-08T10:50:39;97763.81;;;11.22;54.56
22580;BME280;11456;47.030;15.396;2024-03-08T10:53:06;97758.81;;;12.40;52.59
22580;BME280;11456;47.030;15.396;2024-03-08T10:55:36;97770.47;;;12.82;50.61
22580;BME280;11456;47.030;15.396;2024-03-08T10:58:03;97755.47;;;12.80;48.42
22580;BME280;11456;47.030;15.396;2024-03-08T11:00:30;97757.00;;;12.91;47.91
22580;BME280;11456;47.030;15.396;2024-03-08T11:02:58;97756.63;;;10.95;51.12
22580;BME280;11456;47.030;15.396;2024-03-08T11:05:38;97756.94;;;10.92;53.74
22580;BME280;11456;47.030;15.396;2024-03-08T11:08:19;97757.25;;;10.34;53.66
22580;BME280;11456;47.030;15.396;2024-03-08T11:10:53;97750.19;;;10.61;52.73
22580;BME280;11456;47.030;15.396;2024-03-08T11:13:40;97745.41;;;10.55;53.32
22580;BME280;11456;47.030;15.396;2024-03-08T11:16:08;97751.09;;;9.58;56.69
22580;BME280;11456;47.030;15.396;2024-03-08T11:18:37;97744.50;;;9.90;58.19
22580;BME280;11456;47.030;15.396;2024-03-08T11:21:05;97743.22;;;10.31;56.01
22580;BME280;11456;47.030;15.396;2024-03-08T11:23:38;97739.59;;;10.13;55.00
22580;BME280;11456;47.030;15.396;2024-03-08T11:26:22;97736.34;;;9.62;59.55
22580;BME280;11456;47.030;15.396;2024-03-08T11:28:50;97739.16;;;9.71;57.29
22580;BME280;11456;47.030;15.396;2024-03-08T11:31:24;97730.97;;;9.72;60.28
22580;BME280;11456;47.030;15.396;2024-03-08T11:33:53;97724.59;;;10.20;58.96
22580;BME280;11456;47.030;15.396;2024-03-08T11:36:22;97719.28;;;11.36;55.14
22580;BME280;11456;47.030;15.396;2024-03-08T11:38:50;97719.97;;;12.33;48.85
22580;BME280;11456;47.030;15.396;2024-03-08T11:41:20;97711.00;;;12.66;47.35
22580;BME280;11456;47.030;15.396;2024-03-08T11:43:47;97715.66;;;12.48;50.20
22580;BME280;11456;47.030;15.396;2024-03-08T11:46:16;97701.31;;;13.22;46.68
22580;BME280;11456;47.030;15.396;2024-03-08T11:48:44;97709.75;;;13.11;45.83
22580;BME280;11456;47.030;15.396;2024-03-08T11:51:11;97712.56;;;12.35;46.30
22580;BME280;11456;47.030;15.396;2024-03-08T11:53:39;97699.41;;;11.37;48.11
22580;BME280;11456;47.030;15.396;2024-03-08T11:56:10;97686.09;;;12.55;47.75
22580;BME280;11456;47.030;15.396;2024-03-08T11:58:38;97691.22;;;12.74;45.10
22580;BME280;11456;47.030;15.396;2024-03-08T12:01:10;97687.13;;;13.69;44.29
22580;BME280;11456;47.030;15.396;2024-03-08T12:03:39;97682.66;;;11.94;46.70
22580;BME280;11456;47.030;15.396;2024-03-08T12:06:09;97680.75;;;11.87;47.68
22580;BME280;11456;47.030;15.396;2024-03-08T12:08:36;97685.94;;;11.01;49.57
22580;BME280;11456;47.030;15.396;2024-03-08T12:11:06;97682.47;;;10.56;50.54
22580;BME280;11456;47.030;15.396;2024-03-08T12:13:34;97677.75;;;10.40;52.61
22580;BME280;11456;47.030;15.396;2024-03-08T12:16:04;97682.50;;;9.91;54.65
22580;BME280;11456;47.030;15.396;2024-03-08T12:18:38;97677.06;;;10.01;55.17
22580;BME280;11456;47.030;15.396;2024-03-08T12:21:10;97675.81;;;9.58;56.59
22580;BME280;11456;47.030;15.396;2024-03-08T12:23:38;97680.66;;;9.16;60.03
22580;BME280;11456;47.030;15.396;2024-03-08T12:26:23;97679.25;;;9.22;59.97
22580;BME280;11456;47.030;15.396;2024-03-08T12:28:50;97682.97;;;9.02;60.06
22580;BME280;11456;47.030;15.396;2024-03-08T12:31:17;97674.03;;;8.92;60.61
22580;BME280;11456;47.030;15.396;2024-03-08T12:33:50;97665.41;;;9.07;61.70
22580;BME280;11456;47.030;15.396;2024-03-08T12:36:22;97659.25;;;9.53;61.73
22580;BME280;11456;47.030;15.396;2024-03-08T12:38:49;97657.06;;;10.76;56.54
22580;BME280;11456;47.030;15.396;2024-03-08T12:41:20;97651.41;;;11.40;53.30
22580;BME280;11456;47.030;15.396;2024-03-08T12:43:48;97643.16;;;11.42;52.74
22580;BME280;11456;47.030;15.396;2024-03-08T12:46:19;97640.38;;;12.11;50.66
22580;BME280;11456;47.030;15.396;2024-03-08T12:48:49;97642.00;;;10.20;55.32
22580;BME280;11456;47.030;15.396;2024-03-08T12:51:16;97655.25;;;10.04;56.63
22580;BME280;11456;47.030;15.396;2024-03-08T12:53:45;97650.03;;;10.30;56.85
22580;BME280;11456;47.030;15.396;2024-03-08T12:56:21;97652.28;;;9.60;58.42
22580;BME280;11456;47.030;15.396;2024-03-08T12:58:55;97651.41;;;9.79;59.19